This is the latest recevied weather packets stored in our database for station/object JA3YAI-13. If no packets are shown the sender has not sent any weather packets the latest 10 day(s).
| Time | Temp. | Humidity | Pressure | Rain* | Wind** | Luminosity | Snow |
|---|---|---|---|---|---|---|---|
| 1777822584 | 17.78° C | 99% | 993.2 hPa | 0 mm | - | - | - |
| 1777821984 | 17.78° C | 99% | 992.7 hPa | 0 mm | - | - | - |
| 1777821385 | 17.78° C | 99% | 992.7 hPa | 0 mm | - | - | - |
| 1777820785 | 17.78° C | 99% | 993.2 hPa | 0 mm | - | - | - |
| 1777820184 | 18.33° C | 99% | 993.4 hPa | 0 mm | - | - | - |
| 1777819584 | 18.33° C | 99% | 993.2 hPa | 1.27 mm | - | - | - |
| 1777818985 | 18.89° C | 99% | 993 hPa | 1.78 mm | - | - | - |
| 1777818385 | 19.44° C | 99% | 993 hPa | 5.33 mm | - | - | - |
| 1777817784 | 20° C | 99% | 992.9 hPa | 8.38 mm | - | - | - |
| 1777817184 | 20.56° C | 99% | 992.6 hPa | 11.68 mm | - | - | - |
| 1777816585 | 21.11° C | 99% | 992.4 hPa | 14.48 mm | - | - | - |
| 1777815985 | 21.11° C | 99% | 992.5 hPa | 13.46 mm | - | - | - |
| 1777815384 | 21.11° C | 99% | 992.6 hPa | 13.21 mm | - | - | - |
| 1777814784 | 20.56° C | 99% | 992.7 hPa | 9.91 mm | - | - | - |
| 1777814185 | 20.56° C | 98% | 992.9 hPa | 7.11 mm | - | - | - |
| 1777813585 | 20.56° C | 98% | 993 hPa | 4.57 mm | - | - | - |
| 1777812984 | 20.56° C | 98% | 993 hPa | 2.03 mm | - | - | - |
| 1777812384 | 20.56° C | 97% | 993.2 hPa | 2.03 mm | - | - | - |
| 1777811785 | 20.56° C | 98% | 993.4 hPa | 1.78 mm | - | - | - |
| 1777811185 | 20.56° C | 98% | 993.9 hPa | 1.52 mm | - | - | - |
| 1777810584 | 20.56° C | 98% | 993.6 hPa | 1.52 mm | - | - | - |
| 1777809984 | 20.56° C | 97% | 994 hPa | 1.27 mm | - | - | - |
| 1777809385 | 20.56° C | 97% | 993.7 hPa | 1.27 mm | - | - | - |
| 1777808785 | 20.56° C | 97% | 994 hPa | 1.52 mm | - | - | - |
| 1777808184 | 20° C | 97% | 994.3 hPa | 1.78 mm | - | - | - |
* Rain latest hour (hover to see other rain measurements)
** Current wind speed in m/s (hover to see current wind gust speed)